createdAt,value
2022-09-17T00:00:59.971Z,13.50
2022-09-17T00:03:31.283Z,14.33
2022-09-17T00:06:05.588Z,12.90
2022-09-17T00:08:35.639Z,12.33
2022-09-17T00:11:10.804Z,13.53
2022-09-17T00:13:40.400Z,11.17
2022-09-17T00:16:09.520Z,16.87
2022-09-17T00:18:42.350Z,14.97
2022-09-17T00:21:18.335Z,11.33
2022-09-17T00:23:47.266Z,16.00
2022-09-17T00:26:17.155Z,14.13
2022-09-17T00:28:49.476Z,15.20
2022-09-17T00:31:18.603Z,18.73
2022-09-17T00:33:49.304Z,13.00
2022-09-17T00:36:20.759Z,17.70
2022-09-17T00:38:51.914Z,12.93
2022-09-17T00:41:22.134Z,20.87
2022-09-17T00:43:52.854Z,16.27
2022-09-17T00:46:29.360Z,17.83
2022-09-17T00:49:02.560Z,17.70
2022-09-17T00:51:36.158Z,10.07
2022-09-17T00:54:07.863Z,17.93
2022-09-17T00:56:41.081Z,16.80
2022-09-17T00:59:10.197Z,14.27
2022-09-17T01:01:39.930Z,12.87
2022-09-17T01:04:18.322Z,17.87
2022-09-17T01:06:53.096Z,11.20
2022-09-17T01:09:29.688Z,15.57
2022-09-17T01:12:19.068Z,18.43
2022-09-17T01:15:05.009Z,16.53
2022-09-17T01:17:39.236Z,17.90
2022-09-17T01:20:41.696Z,12.70
2022-09-17T01:23:35.469Z,11.30
2022-09-17T01:26:40.070Z,10.33
2022-09-17T01:29:16.704Z,19.03
2022-09-17T01:31:49.328Z,18.50
2022-09-17T01:34:24.198Z,16.40
2022-09-17T01:37:04.719Z,11.13
2022-09-17T01:39:44.289Z,13.80
2022-09-17T01:42:20.186Z,10.83
2022-09-17T01:44:55.476Z,12.40
2022-09-17T01:47:29.236Z,9.80
2022-09-17T01:50:02.948Z,11.27
2022-09-17T01:52:34.537Z,7.93
2022-09-17T01:55:06.086Z,12.50
2022-09-17T01:57:38.662Z,14.63
2022-09-17T02:00:09.977Z,11.87
2022-09-17T02:02:49.221Z,12.00
2022-09-17T02:05:21.241Z,10.40
2022-09-17T02:07:53.991Z,14.50
2022-09-17T02:10:25.474Z,10.77
2022-09-17T02:12:58.629Z,12.33
2022-09-17T02:15:32.414Z,16.40
2022-09-17T02:18:06.932Z,16.70
2022-09-17T02:20:41.569Z,20.93
2022-09-17T02:23:17.329Z,19.07
2022-09-17T02:25:51.903Z,19.00
2022-09-17T02:28:28.063Z,22.37
2022-09-17T02:30:56.696Z,21.13
2022-09-17T02:33:28.076Z,17.83
2022-09-17T02:35:57.033Z,25.03
2022-09-17T02:38:27.979Z,26.80
2022-09-17T02:41:06.983Z,22.17
2022-09-17T02:43:43.293Z,31.53
2022-09-17T02:46:28.672Z,26.13
2022-09-17T02:49:17.661Z,33.57
2022-09-17T02:51:52.766Z,22.07
2022-09-17T02:54:27.129Z,32.83
2022-09-17T02:57:04.572Z,34.90
2022-09-17T02:59:38.237Z,45.70
2022-09-17T03:02:11.234Z,37.67
2022-09-17T03:04:41.356Z,36.17
2022-09-17T03:07:11.276Z,33.53
2022-09-17T03:09:41.430Z,34.63
2022-09-17T03:12:18.610Z,34.13
2022-09-17T03:14:47.808Z,27.63
2022-09-17T03:17:16.300Z,33.80
2022-09-17T03:19:46.443Z,33.07
2022-09-17T03:22:15.822Z,32.03
2022-09-17T03:24:44.964Z,33.60
2022-09-17T03:27:13.592Z,40.83
2022-09-17T03:29:42.437Z,34.43
2022-09-17T03:32:11.879Z,29.40
2022-09-17T03:34:41.012Z,41.03
2022-09-17T03:37:11.620Z,39.83
2022-09-17T03:39:40.885Z,29.00
2022-09-17T03:42:10.224Z,38.13
2022-09-17T03:44:42.383Z,32.80
2022-09-17T03:47:18.080Z,39.30
2022-09-17T03:49:47.410Z,42.23
2022-09-17T03:52:17.955Z,42.60
2022-09-17T03:54:47.085Z,37.80
2022-09-17T03:57:17.091Z,36.87
2022-09-17T03:59:46.340Z,38.03
2022-09-17T04:02:15.257Z,37.13
2022-09-17T04:04:44.999Z,41.73
2022-09-17T04:07:13.911Z,44.97
2022-09-17T04:09:44.254Z,41.37
2022-09-17T04:12:13.160Z,49.23
2022-09-17T04:14:41.539Z,52.80
2022-09-17T04:17:10.272Z,37.33
2022-09-17T04:19:39.463Z,37.00
2022-09-17T04:22:07.815Z,39.57
2022-09-17T04:24:36.773Z,39.07
2022-09-17T04:27:07.550Z,45.57
2022-09-17T04:29:36.551Z,33.53
2022-09-17T04:32:05.332Z,41.60
2022-09-17T04:34:34.698Z,41.20
2022-09-17T04:37:03.495Z,28.47
2022-09-17T04:39:33.035Z,42.93
2022-09-17T04:42:01.645Z,36.37
2022-09-17T04:44:32.421Z,39.87
2022-09-17T04:47:01.596Z,40.43
2022-09-17T04:49:31.090Z,40.13
2022-09-17T04:51:59.617Z,35.77
2022-09-17T04:54:28.297Z,36.30
2022-09-17T04:56:57.002Z,35.30
2022-09-17T04:59:25.943Z,39.30
2022-09-17T05:01:56.676Z,37.67
2022-09-17T05:04:25.520Z,42.70
2022-09-17T05:06:54.429Z,26.93
2022-09-17T05:09:23.290Z,34.87
2022-09-17T05:11:52.233Z,27.90
2022-09-17T05:14:22.089Z,29.50
2022-09-17T05:16:51.447Z,30.10
2022-09-17T05:19:21.469Z,27.50
2022-09-17T05:21:50.555Z,30.53
2022-09-17T05:24:19.248Z,32.80
2022-09-17T05:26:47.749Z,38.23
2022-09-17T05:29:16.694Z,30.70
2022-09-17T05:31:45.806Z,47.23
2022-09-17T05:34:15.008Z,36.13
2022-09-17T05:36:45.449Z,32.17
2022-09-17T05:39:14.055Z,36.90
2022-09-17T05:41:42.880Z,27.87
2022-09-17T05:44:17.344Z,36.63
2022-09-17T05:46:47.544Z,33.30
2022-09-17T05:49:17.426Z,39.23
2022-09-17T05:51:48.391Z,36.00
2022-09-17T05:54:17.308Z,27.47
2022-09-17T05:56:46.702Z,36.63
2022-09-17T05:59:16.001Z,25.27
2022-09-17T06:01:45.218Z,33.70
2022-09-17T06:04:13.901Z,24.63
2022-09-17T06:06:42.990Z,22.17
2022-09-17T06:09:14.342Z,24.50
2022-09-17T06:11:43.831Z,22.27
2022-09-17T06:14:12.679Z,28.30
2022-09-17T06:16:41.526Z,27.23
2022-09-17T06:19:11.150Z,23.70
2022-09-17T06:21:39.916Z,24.67
2022-09-17T06:24:10.921Z,26.63
2022-09-17T06:26:41.540Z,23.10
2022-09-17T06:29:10.361Z,18.90
2022-09-17T06:31:39.675Z,19.70
2022-09-17T06:34:09.192Z,23.23
2022-09-17T06:36:38.007Z,16.07
2022-09-17T06:39:07.352Z,20.00
2022-09-17T06:41:37.467Z,14.30
2022-09-17T06:44:09.634Z,11.77
2022-09-17T06:46:44.601Z,17.63
2022-09-17T06:49:13.869Z,15.10
2022-09-17T06:51:42.791Z,10.43
2022-09-17T06:54:12.528Z,11.60
2022-09-17T06:56:42.472Z,11.23
2022-09-17T06:59:12.508Z,6.60
2022-09-17T07:01:41.621Z,7.57
2022-09-17T07:04:10.895Z,9.87
2022-09-17T07:06:39.589Z,9.53
2022-09-17T07:09:11.077Z,9.07
2022-09-17T07:11:40.463Z,8.87
2022-09-17T07:14:09.124Z,9.80
2022-09-17T07:16:39.983Z,9.93
2022-09-17T07:19:09.116Z,11.67
2022-09-17T07:21:38.242Z,10.07
2022-09-17T07:24:07.681Z,13.80
2022-09-17T07:26:37.284Z,17.40
2022-09-17T07:29:05.982Z,14.50
2022-09-17T07:31:34.861Z,14.60
2022-09-17T07:34:05.097Z,15.63
2022-09-17T07:36:34.152Z,15.80
2022-09-17T07:39:03.575Z,16.27
2022-09-17T07:41:32.338Z,16.80
2022-09-17T07:44:02.775Z,20.17
2022-09-17T07:46:31.457Z,15.80
2022-09-17T07:48:59.891Z,11.50
2022-09-17T07:51:30.414Z,14.17
2022-09-17T07:54:00.298Z,17.03
2022-09-17T07:56:29.317Z,12.47
2022-09-17T07:58:58.763Z,18.07
2022-09-17T08:01:27.859Z,14.60
2022-09-17T08:03:57.273Z,16.17
2022-09-17T08:06:28.294Z,21.87
2022-09-17T08:08:59.872Z,17.07
2022-09-17T08:11:55.675Z,17.40
2022-09-17T08:14:19.289Z,14.90
2022-09-17T08:16:48.777Z,17.50
2022-09-17T08:19:19.604Z,18.80
2022-09-17T08:21:49.090Z,14.97
2022-09-17T08:24:19.165Z,16.87
2022-09-17T08:26:48.058Z,17.40
2022-09-17T08:29:17.351Z,16.63
2022-09-17T08:31:46.066Z,12.40
2022-09-17T08:34:15.699Z,15.97
2022-09-17T08:36:45.765Z,18.03
2022-09-17T08:39:14.639Z,20.53
2022-09-17T08:41:57.469Z,17.20
2022-09-17T08:44:29.264Z,18.77
2022-09-17T08:47:06.519Z,16.37
2022-09-17T08:49:37.399Z,12.60
2022-09-17T08:52:31.128Z,22.00
2022-09-17T08:55:07.077Z,18.27
2022-09-17T08:57:41.211Z,21.47
2022-09-17T09:00:14.667Z,17.47
2022-09-17T09:03:03.051Z,24.27
2022-09-17T09:05:33.753Z,16.40
2022-09-17T09:08:06.877Z,15.73
2022-09-17T09:10:45.123Z,16.77
2022-09-17T09:13:17.622Z,21.70
2022-09-17T09:15:49.737Z,13.73
2022-09-17T09:18:22.019Z,12.93
2022-09-17T09:20:53.895Z,19.37
2022-09-17T09:23:31.065Z,13.20
2022-09-17T09:26:10.607Z,15.07
2022-09-17T09:29:06.372Z,13.90
2022-09-17T09:31:57.801Z,12.90
2022-09-17T09:34:29.053Z,12.67
2022-09-17T09:37:12.822Z,22.80
2022-09-17T09:39:46.212Z,16.43
2022-09-17T09:42:20.711Z,16.43
2022-09-17T09:44:51.243Z,18.00
2022-09-17T09:47:38.534Z,14.87
2022-09-17T09:50:19.100Z,17.63
2022-09-17T09:52:59.925Z,24.00
2022-09-17T09:55:43.945Z,13.60
2022-09-17T09:58:22.924Z,13.87
2022-09-17T10:00:53.697Z,13.17
2022-09-17T10:03:25.331Z,16.63
2022-09-17T10:05:56.759Z,13.73
2022-09-17T10:08:26.209Z,14.23
2022-09-17T10:10:58.182Z,14.50
2022-09-17T10:13:27.440Z,11.80
2022-09-17T10:15:58.801Z,17.33
2022-09-17T10:18:28.707Z,13.73
2022-09-17T10:20:59.607Z,12.70
2022-09-17T10:23:30.705Z,14.53
2022-09-17T10:25:59.878Z,11.77
2022-09-17T10:28:39.988Z,14.63
2022-09-17T10:31:11.588Z,15.27
2022-09-17T10:33:42.992Z,15.77
2022-09-17T10:36:14.903Z,14.13
2022-09-17T10:38:46.486Z,11.23
2022-09-17T10:41:21.897Z,11.57
2022-09-17T10:43:51.710Z,12.97
2022-09-17T10:46:27.741Z,11.60
2022-09-17T10:49:10.130Z,10.63
2022-09-17T10:51:38.994Z,12.13
2022-09-17T10:54:20.720Z,11.63
2022-09-17T10:56:54.519Z,14.83
2022-09-17T10:59:39.196Z,10.03
2022-09-17T11:02:29.818Z,12.00
2022-09-17T11:05:04.789Z,11.13
2022-09-17T11:07:42.660Z,8.87
2022-09-17T11:10:15.629Z,14.77
2022-09-17T11:13:05.764Z,12.00
2022-09-17T11:15:44.214Z,12.10
2022-09-17T11:18:37.242Z,11.33
2022-09-17T11:21:33.910Z,11.80
2022-09-17T11:24:33.829Z,9.90
2022-09-17T11:27:10.149Z,9.37
2022-09-17T11:29:52.456Z,8.67
2022-09-17T11:32:37.828Z,10.57
2022-09-17T11:35:12.053Z,10.57
2022-09-17T11:37:43.779Z,7.67
2022-09-17T11:40:17.486Z,10.07
2022-09-17T11:42:50.782Z,9.30
2022-09-17T11:45:21.982Z,6.47
2022-09-17T11:47:55.444Z,8.30
2022-09-17T11:50:29.676Z,8.93
2022-09-17T11:53:05.496Z,6.20
2022-09-17T11:55:39.401Z,5.70
2022-09-17T11:58:14.146Z,6.93
2022-09-17T12:00:48.063Z,5.63
2022-09-17T12:03:22.404Z,8.57
2022-09-17T12:05:55.358Z,6.87
2022-09-17T12:08:27.804Z,7.10
2022-09-17T12:11:02.877Z,6.80
2022-09-17T12:13:37.009Z,7.07
2022-09-17T12:16:17.054Z,7.10
2022-09-17T12:18:53.300Z,5.63
2022-09-17T12:21:27.370Z,8.57
2022-09-17T12:24:00.646Z,11.97
2022-09-17T12:26:36.514Z,9.90
2022-09-17T12:29:10.328Z,7.40
2022-09-17T12:31:46.509Z,6.27
2022-09-17T12:34:28.525Z,6.70
2022-09-17T12:37:07.013Z,8.80
2022-09-17T12:39:54.371Z,10.20
2022-09-17T12:42:52.249Z,7.63
2022-09-17T12:45:36.885Z,7.13
2022-09-17T12:48:41.998Z,9.37
2022-09-17T12:51:23.983Z,5.67
2022-09-17T12:54:01.505Z,5.57
2022-09-17T12:56:40.087Z,2.67
2022-09-17T12:59:13.076Z,7.40
2022-09-17T13:01:48.327Z,5.63
2022-09-17T13:05:00.985Z,7.00
2022-09-17T13:08:10.270Z,5.10
2022-09-17T13:11:08.178Z,8.60
2022-09-17T13:13:43.850Z,7.73
2022-09-17T13:16:19.960Z,2.57
2022-09-17T13:19:15.651Z,1.43
2022-09-17T13:21:52.818Z,2.93
2022-09-17T13:24:22.728Z,2.67
2022-09-17T13:26:54.585Z,5.73
2022-09-17T13:30:00.346Z,4.97
2022-09-17T13:32:46.750Z,5.60
2022-09-17T13:35:51.876Z,6.40
2022-09-17T13:38:23.914Z,5.53
2022-09-17T13:40:54.229Z,6.10
2022-09-17T13:43:28.113Z,7.20
2022-09-17T13:46:24.203Z,8.60
2022-09-17T13:48:56.450Z,11.20
2022-09-17T13:51:47.099Z,6.90
2022-09-17T13:54:17.419Z,6.37
2022-09-17T13:56:48.275Z,6.57
2022-09-17T13:59:20.834Z,6.93
2022-09-17T14:02:04.766Z,9.93
2022-09-17T14:04:48.210Z,10.07
2022-09-17T14:07:37.970Z,5.13
2022-09-17T14:10:41.911Z,8.37
2022-09-17T14:13:53.057Z,11.57
2022-09-17T14:16:47.466Z,7.37
2022-09-17T14:19:34.920Z,7.20
2022-09-17T14:22:14.836Z,3.97
2022-09-17T14:24:54.006Z,0.73
2022-09-17T14:27:42.088Z,4.30
2022-09-17T14:30:16.919Z,2.27
2022-09-17T14:33:03.388Z,3.80
2022-09-17T14:35:36.714Z,1.93
2022-09-17T14:38:12.318Z,4.13
2022-09-17T14:40:44.618Z,5.23
2022-09-17T14:43:20.553Z,6.77
2022-09-17T14:45:52.022Z,5.80
2022-09-17T14:48:33.473Z,8.43
2022-09-17T14:51:32.970Z,1.60
2022-09-17T14:54:26.265Z,3.30
2022-09-17T14:56:58.462Z,3.70
2022-09-17T14:59:43.134Z,4.30
2022-09-17T15:02:38.328Z,2.37
2022-09-17T15:05:21.156Z,3.60
2022-09-17T15:07:50.212Z,3.27
2022-09-17T15:10:20.623Z,2.70
2022-09-17T15:12:51.326Z,2.67
2022-09-17T15:15:22.751Z,2.53
2022-09-17T15:17:52.515Z,2.83
2022-09-17T15:20:24.090Z,1.77
2022-09-17T15:22:58.437Z,3.17
2022-09-17T15:25:31.531Z,3.60
2022-09-17T15:28:06.911Z,3.50
2022-09-17T15:30:35.675Z,2.57
2022-09-17T15:33:05.147Z,2.27
2022-09-17T15:35:35.747Z,1.50
2022-09-17T15:38:23.626Z,1.80
2022-09-17T15:40:53.897Z,1.20
2022-09-17T15:43:26.873Z,2.73
2022-09-17T15:45:56.156Z,1.80
2022-09-17T15:48:37.712Z,1.80
2022-09-17T15:51:16.656Z,4.37
2022-09-17T15:53:53.668Z,5.13
2022-09-17T15:56:24.644Z,6.50
2022-09-17T15:58:57.707Z,3.70
2022-09-17T16:01:56.415Z,2.17
2022-09-17T16:04:33.839Z,3.00
2022-09-17T16:07:27.610Z,4.63
2022-09-17T16:09:59.431Z,2.50
2022-09-17T16:12:30.439Z,2.07
2022-09-17T16:15:01.797Z,3.67
2022-09-17T16:17:37.287Z,3.83
2022-09-17T16:20:14.423Z,2.97
2022-09-17T16:22:44.797Z,1.97
2022-09-17T16:25:13.251Z,4.03
2022-09-17T16:27:53.250Z,4.93
2022-09-17T16:30:23.964Z,2.27
2022-09-17T16:32:53.907Z,5.00
2022-09-17T16:35:24.657Z,3.67
2022-09-17T16:37:57.278Z,2.77
2022-09-17T16:40:28.478Z,4.93
2022-09-17T16:42:57.237Z,5.13
2022-09-17T16:45:29.116Z,5.97
2022-09-17T16:47:58.869Z,4.60
2022-09-17T16:50:29.853Z,2.77
2022-09-17T16:53:04.955Z,5.77
2022-09-17T16:55:34.188Z,4.60
2022-09-17T16:58:03.819Z,5.40
2022-09-17T17:00:33.220Z,4.47
2022-09-17T17:03:02.624Z,3.57
2022-09-17T17:05:32.329Z,5.07
2022-09-17T17:08:06.780Z,4.30
2022-09-17T17:10:36.895Z,4.07
2022-09-17T17:13:05.772Z,4.37
2022-09-17T17:15:35.150Z,2.93
2022-09-17T17:18:03.926Z,4.67
2022-09-17T17:20:33.379Z,5.53
2022-09-17T17:23:04.795Z,3.10
2022-09-17T17:25:34.614Z,3.00
2022-09-17T17:28:03.996Z,3.83
2022-09-17T17:30:35.088Z,4.33
2022-09-17T17:33:05.014Z,3.50
2022-09-17T17:35:34.616Z,2.13
2022-09-17T17:38:05.169Z,6.13
2022-09-17T17:40:34.214Z,6.97
2022-09-17T17:43:03.518Z,4.83
2022-09-17T17:45:32.199Z,5.53
2022-09-17T17:48:01.696Z,4.10
2022-09-17T17:50:30.297Z,7.67
2022-09-17T17:52:59.358Z,3.80
2022-09-17T17:55:30.064Z,6.70
2022-09-17T17:58:01.684Z,4.60
2022-09-17T18:00:30.641Z,5.70
2022-09-17T18:02:59.993Z,4.70
2022-09-17T18:05:28.620Z,5.87
2022-09-17T18:07:57.966Z,4.23
2022-09-17T18:10:28.544Z,3.80
2022-09-17T18:12:57.568Z,4.47
2022-09-17T18:15:25.990Z,6.33
2022-09-17T18:17:55.029Z,4.20
2022-09-17T18:20:23.771Z,5.67
2022-09-17T18:22:53.225Z,6.33
2022-09-17T18:25:22.756Z,10.63
2022-09-17T18:27:52.574Z,4.83
2022-09-17T18:30:21.913Z,4.03
2022-09-17T18:32:51.849Z,5.80
2022-09-17T18:35:23.477Z,4.80
2022-09-17T18:37:52.537Z,4.33
2022-09-17T18:40:22.003Z,4.90
2022-09-17T18:42:53.451Z,4.17
2022-09-17T18:45:22.649Z,8.57
2022-09-17T18:47:51.418Z,4.27
2022-09-17T18:50:19.892Z,6.83
2022-09-17T18:52:48.722Z,4.50
2022-09-17T18:55:18.364Z,5.03
2022-09-17T18:57:53.313Z,5.73
2022-09-17T19:00:24.415Z,2.47
2022-09-17T19:02:53.672Z,3.63
2022-09-17T19:05:22.391Z,3.13
2022-09-17T19:07:53.974Z,3.40
2022-09-17T19:10:22.950Z,2.13
2022-09-17T19:12:53.516Z,3.60
2022-09-17T19:15:24.244Z,2.57
2022-09-17T19:17:53.352Z,1.33
2022-09-17T19:20:22.963Z,3.77
2022-09-17T19:22:51.850Z,2.27
2022-09-17T19:25:21.069Z,5.83
2022-09-17T19:27:49.876Z,5.03
2022-09-17T19:30:21.379Z,1.27
2022-09-17T19:32:50.511Z,2.40
2022-09-17T19:35:19.650Z,2.77
2022-09-17T19:37:48.418Z,1.60
2022-09-17T19:40:17.680Z,1.50
2022-09-17T19:42:52.093Z,2.50
2022-09-17T19:45:22.965Z,3.33
2022-09-17T19:47:56.657Z,2.87
2022-09-17T19:50:25.905Z,1.43
2022-09-17T19:52:54.397Z,2.10
2022-09-17T19:55:24.557Z,5.07
2022-09-17T19:57:55.785Z,6.30
2022-09-17T20:00:26.811Z,1.60
2022-09-17T20:02:55.943Z,3.83
2022-09-17T20:05:26.275Z,5.63
2022-09-17T20:07:55.289Z,3.00
2022-09-17T20:10:24.400Z,3.47
2022-09-17T20:12:53.640Z,2.63
2022-09-17T20:15:22.627Z,2.67
2022-09-17T20:17:52.698Z,4.90
2022-09-17T20:20:21.318Z,2.60
2022-09-17T20:22:53.312Z,3.10
2022-09-17T20:25:24.330Z,1.63
2022-09-17T20:27:54.979Z,2.70
2022-09-17T20:30:23.758Z,3.57
2022-09-17T20:32:56.453Z,2.63
2022-09-17T20:35:25.248Z,3.47
2022-09-17T20:40:43.592Z,3.53
2022-09-17T20:43:12.016Z,5.60
2022-09-17T20:45:40.837Z,1.93
2022-09-17T20:48:10.797Z,2.30
2022-09-17T20:50:39.547Z,3.77
2022-09-17T20:53:08.515Z,3.53
2022-09-17T20:55:37.712Z,4.83
2022-09-17T20:58:08.078Z,3.87
2022-09-17T21:00:37.354Z,2.43
2022-09-17T21:03:06.210Z,9.00
2022-09-17T21:05:38.708Z,4.30
2022-09-17T21:08:07.085Z,3.10
2022-09-17T21:10:36.022Z,3.93
2022-09-17T21:13:05.163Z,2.00
2022-09-17T21:15:34.930Z,3.27
2022-09-17T21:18:03.713Z,2.67
2022-09-17T21:20:32.115Z,2.17
2022-09-17T21:23:02.878Z,2.00
2022-09-17T21:25:32.142Z,4.57
2022-09-17T21:28:01.966Z,2.10
2022-09-17T21:30:31.415Z,4.20
2022-09-17T21:33:01.088Z,3.23
2022-09-17T21:35:33.125Z,2.13
2022-09-17T21:38:04.021Z,3.57
2022-09-17T21:40:32.877Z,4.20
2022-09-17T21:43:01.843Z,3.70
2022-09-17T21:45:30.288Z,1.40
2022-09-17T21:48:00.815Z,4.63
2022-09-17T21:50:29.427Z,2.87
2022-09-17T21:52:58.840Z,5.70
2022-09-17T21:55:29.448Z,1.60
2022-09-17T21:57:58.211Z,1.40
2022-09-17T22:00:27.758Z,5.43
2022-09-17T22:02:57.014Z,2.67
2022-09-17T22:05:26.528Z,4.67
2022-09-17T22:07:56.006Z,2.93
2022-09-17T22:10:25.375Z,4.40
2022-09-17T22:12:57.356Z,6.13
2022-09-17T22:15:27.047Z,4.97
2022-09-17T22:17:55.790Z,7.70
2022-09-17T22:20:26.010Z,9.97
2022-09-17T22:22:54.797Z,5.67
2022-09-17T22:25:24.513Z,2.90
2022-09-17T22:28:16.973Z,7.20
2022-09-17T22:30:44.220Z,6.23
2022-09-17T22:33:14.011Z,7.33
2022-09-17T22:35:42.546Z,6.07
2022-09-17T22:38:11.225Z,4.17
2022-09-17T22:40:40.319Z,3.87
2022-09-17T22:43:09.831Z,5.33
2022-09-17T22:45:39.441Z,5.83
2022-09-17T22:48:09.961Z,4.13
2022-09-17T22:50:38.538Z,5.73
2022-09-17T22:53:07.939Z,7.07
2022-09-17T22:55:36.848Z,4.37
2022-09-17T22:58:06.121Z,5.30
2022-09-17T23:00:35.267Z,6.03
2022-09-17T23:03:03.847Z,5.00
2022-09-17T23:05:34.362Z,9.77
2022-09-17T23:08:03.763Z,4.90
2022-09-17T23:10:33.331Z,5.17
2022-09-17T23:13:02.952Z,8.00
2022-09-17T23:15:33.775Z,11.50
2022-09-17T23:18:02.970Z,6.70
2022-09-17T23:20:33.668Z,13.13
2022-09-17T23:23:03.192Z,5.10
2022-09-17T23:25:33.006Z,6.13
2022-09-17T23:28:01.581Z,5.77
2022-09-17T23:30:30.641Z,8.40
2022-09-17T23:33:00.035Z,8.40
2022-09-17T23:35:28.844Z,5.67
2022-09-17T23:37:59.895Z,7.30
2022-09-17T23:40:29.310Z,5.27
2022-09-17T23:42:58.581Z,6.27
2022-09-17T23:45:27.337Z,11.00
2022-09-17T23:47:57.254Z,5.53
2022-09-17T23:50:27.037Z,10.30
2022-09-17T23:52:56.586Z,9.23
2022-09-17T23:55:26.737Z,10.07
2022-09-17T23:57:55.772Z,13.20
